sensor_id;sensor_type;location;lat;lon;timestamp;pressure;altitude;pressure_sealevel;temperature;humidity
40155;BME280;25875;48.202;16.334;2023-08-06T00:01:57;97908.06;;;15.95;83.21
40155;BME280;25875;48.202;16.334;2023-08-06T00:04:24;97902.72;;;15.95;83.21
40155;BME280;25875;48.202;16.334;2023-08-06T00:06:52;97884.34;;;15.74;83.48
40155;BME280;25875;48.202;16.334;2023-08-06T00:09:19;97872.97;;;15.72;83.11
40155;BME280;25875;48.202;16.334;2023-08-06T00:11:46;97904.88;;;15.91;83.23
40155;BME280;25875;48.202;16.334;2023-08-06T00:14:13;97905.84;;;15.90;83.00
40155;BME280;25875;48.202;16.334;2023-08-06T00:16:43;97881.50;;;15.76;83.46
40155;BME280;25875;48.202;16.334;2023-08-06T00:19:10;97911.59;;;15.78;83.48
40155;BME280;25875;48.202;16.334;2023-08-06T00:21:37;97904.63;;;15.85;83.45
40155;BME280;25875;48.202;16.334;2023-08-06T00:24:05;97908.59;;;15.81;84.36
40155;BME280;25875;48.202;16.334;2023-08-06T00:26:32;97905.78;;;15.82;84.22
40155;BME280;25875;48.202;16.334;2023-08-06T00:28:59;97898.22;;;15.78;84.35
40155;BME280;25875;48.202;16.334;2023-08-06T00:31:25;97907.91;;;15.79;85.12
40155;BME280;25875;48.202;16.334;2023-08-06T00:33:52;97898.38;;;15.76;85.10
40155;BME280;25875;48.202;16.334;2023-08-06T00:36:19;97885.47;;;15.71;85.19
40155;BME280;25875;48.202;16.334;2023-08-06T00:38:45;97876.28;;;15.56;85.52
40155;BME280;25875;48.202;16.334;2023-08-06T00:41:13;97895.88;;;15.75;84.71
40155;BME280;25875;48.202;16.334;2023-08-06T00:43:40;97895.63;;;15.68;85.31
40155;BME280;25875;48.202;16.334;2023-08-06T00:46:07;97907.22;;;15.77;85.35
40155;BME280;25875;48.202;16.334;2023-08-06T00:48:34;97897.53;;;15.76;85.47
40155;BME280;25875;48.202;16.334;2023-08-06T00:51:01;97900.69;;;15.61;86.50
40155;BME280;25875;48.202;16.334;2023-08-06T00:53:28;97815.47;;;15.15;86.38
40155;BME280;25875;48.202;16.334;2023-08-06T00:55:55;97866.13;;;15.60;85.34
40155;BME280;25875;48.202;16.334;2023-08-06T00:58:23;97877.94;;;15.67;86.12
40155;BME280;25875;48.202;16.334;2023-08-06T01:00:50;97875.41;;;15.65;85.92
40155;BME280;25875;48.202;16.334;2023-08-06T01:03:16;97886.78;;;15.67;85.20
40155;BME280;25875;48.202;16.334;2023-08-06T01:05:43;97879.44;;;15.69;84.71
40155;BME280;25875;48.202;16.334;2023-08-06T01:08:19;97881.59;;;15.66;84.54
40155;BME280;25875;48.202;16.334;2023-08-06T01:11:02;97874.41;;;15.66;84.93
40155;BME280;25875;48.202;16.334;2023-08-06T01:13:37;97868.50;;;15.63;85.25
40155;BME280;25875;48.202;16.334;2023-08-06T01:16:09;97858.59;;;15.55;85.99
40155;BME280;25875;48.202;16.334;2023-08-06T01:18:36;97855.91;;;15.55;86.15
40155;BME280;25875;48.202;16.334;2023-08-06T01:21:05;97853.56;;;15.52;85.61
40155;BME280;25875;48.202;16.334;2023-08-06T01:23:33;97859.28;;;15.57;84.94
40155;BME280;25875;48.202;16.334;2023-08-06T01:26:11;97855.47;;;15.60;85.10
40155;BME280;25875;48.202;16.334;2023-08-06T01:28:48;97850.44;;;15.57;84.70
40155;BME280;25875;48.202;16.334;2023-08-06T01:31:22;97847.38;;;15.52;84.93
40155;BME280;25875;48.202;16.334;2023-08-06T01:33:51;97837.69;;;15.51;84.90
40155;BME280;25875;48.202;16.334;2023-08-06T01:36:22;97840.81;;;15.46;85.76
40155;BME280;25875;48.202;16.334;2023-08-06T01:38:51;97840.97;;;15.45;85.75
40155;BME280;25875;48.202;16.334;2023-08-06T01:41:18;97842.16;;;15.32;86.83
40155;BME280;25875;48.202;16.334;2023-08-06T01:43:45;97843.09;;;15.41;86.19
40155;BME280;25875;48.202;16.334;2023-08-06T01:46:12;97840.34;;;15.33;86.68
40155;BME280;25875;48.202;16.334;2023-08-06T01:48:38;97848.75;;;15.38;86.32
40155;BME280;25875;48.202;16.334;2023-08-06T01:51:05;97820.19;;;15.21;86.54
40155;BME280;25875;48.202;16.334;2023-08-06T01:53:33;97811.75;;;15.25;85.56
40155;BME280;25875;48.202;16.334;2023-08-06T01:56:00;97830.44;;;15.43;85.38
40155;BME280;25875;48.202;16.334;2023-08-06T01:58:27;97832.41;;;15.41;86.09
40155;BME280;25875;48.202;16.334;2023-08-06T02:00:54;97817.47;;;15.30;87.07
40155;BME280;25875;48.202;16.334;2023-08-06T02:03:21;97815.75;;;15.12;87.94
40155;BME280;25875;48.202;16.334;2023-08-06T02:05:47;97822.88;;;15.21;86.74
40155;BME280;25875;48.202;16.334;2023-08-06T02:08:14;97776.44;;;15.14;86.28
40155;BME280;25875;48.202;16.334;2023-08-06T02:10:43;97783.44;;;15.15;86.35
40155;BME280;25875;48.202;16.334;2023-08-06T02:13:09;97810.69;;;15.36;85.32
40155;BME280;25875;48.202;16.334;2023-08-06T02:15:41;97812.97;;;15.31;85.64
40155;BME280;25875;48.202;16.334;2023-08-06T02:18:08;97800.59;;;15.30;85.42
40155;BME280;25875;48.202;16.334;2023-08-06T02:20:35;97825.63;;;15.29;85.24
40155;BME280;25875;48.202;16.334;2023-08-06T02:23:03;97817.47;;;15.30;85.23
40155;BME280;25875;48.202;16.334;2023-08-06T02:25:29;97814.94;;;15.29;85.40
40155;BME280;25875;48.202;16.334;2023-08-06T02:27:58;97815.47;;;15.32;85.06
40155;BME280;25875;48.202;16.334;2023-08-06T02:30:24;97814.72;;;15.22;85.61
40155;BME280;25875;48.202;16.334;2023-08-06T02:32:51;97803.72;;;15.25;85.17
40155;BME280;25875;48.202;16.334;2023-08-06T02:35:18;97796.19;;;15.21;85.90
40155;BME280;25875;48.202;16.334;2023-08-06T02:37:45;97789.31;;;15.18;85.72
40155;BME280;25875;48.202;16.334;2023-08-06T02:40:11;97782.75;;;15.13;86.30
40155;BME280;25875;48.202;16.334;2023-08-06T02:42:38;97791.00;;;15.19;85.90
40155;BME280;25875;48.202;16.334;2023-08-06T02:45:08;97771.94;;;15.14;86.04
40155;BME280;25875;48.202;16.334;2023-08-06T02:47:34;97675.28;;;14.57;85.81
40155;BME280;25875;48.202;16.334;2023-08-06T02:50:01;97772.69;;;15.06;86.74
40155;BME280;25875;48.202;16.334;2023-08-06T02:52:30;97780.09;;;15.13;85.92
40155;BME280;25875;48.202;16.334;2023-08-06T02:54:57;97755.22;;;14.94;85.55
40155;BME280;25875;48.202;16.334;2023-08-06T02:57:25;97777.66;;;15.19;84.80
40155;BME280;25875;48.202;16.334;2023-08-06T02:59:52;97779.94;;;15.14;85.27
40155;BME280;25875;48.202;16.334;2023-08-06T03:02:20;97746.06;;;14.97;84.77
40155;BME280;25875;48.202;16.334;2023-08-06T03:04:47;97784.13;;;15.17;84.43
40155;BME280;25875;48.202;16.334;2023-08-06T03:07:13;97790.31;;;15.17;84.22
40155;BME280;25875;48.202;16.334;2023-08-06T03:09:40;97757.44;;;14.99;83.96
40155;BME280;25875;48.202;16.334;2023-08-06T03:12:08;97728.47;;;14.86;83.56
40155;BME280;25875;48.202;16.334;2023-08-06T03:14:34;97792.44;;;15.14;84.31
40155;BME280;25875;48.202;16.334;2023-08-06T03:17:01;97785.88;;;15.08;83.79
40155;BME280;25875;48.202;16.334;2023-08-06T03:19:29;97758.97;;;15.01;83.50
40155;BME280;25875;48.202;16.334;2023-08-06T03:21:56;97784.44;;;15.14;83.60
40155;BME280;25875;48.202;16.334;2023-08-06T03:24:23;97768.63;;;15.02;83.75
40155;BME280;25875;48.202;16.334;2023-08-06T03:26:49;97764.59;;;14.98;83.62
40155;BME280;25875;48.202;16.334;2023-08-06T03:29:16;97786.94;;;15.15;83.51
40155;BME280;25875;48.202;16.334;2023-08-06T03:31:42;97782.31;;;15.17;83.21
40155;BME280;25875;48.202;16.334;2023-08-06T03:34:09;97776.13;;;15.17;83.00
40155;BME280;25875;48.202;16.334;2023-08-06T03:36:37;97786.78;;;15.17;82.61
40155;BME280;25875;48.202;16.334;2023-08-06T03:39:04;97785.41;;;15.13;82.51
40155;BME280;25875;48.202;16.334;2023-08-06T03:41:31;97769.94;;;15.16;82.28
40155;BME280;25875;48.202;16.334;2023-08-06T03:43:57;97776.97;;;15.17;82.77
40155;BME280;25875;48.202;16.334;2023-08-06T03:46:24;97778.50;;;15.20;82.32
40155;BME280;25875;48.202;16.334;2023-08-06T03:48:51;97773.16;;;15.20;82.40
40155;BME280;25875;48.202;16.334;2023-08-06T03:51:17;97767.66;;;15.21;82.62
40155;BME280;25875;48.202;16.334;2023-08-06T03:53:45;97767.50;;;15.23;82.48
40155;BME280;25875;48.202;16.334;2023-08-06T03:56:12;97763.63;;;15.17;82.53
40155;BME280;25875;48.202;16.334;2023-08-06T03:58:39;97763.63;;;15.17;82.87
40155;BME280;25875;48.202;16.334;2023-08-06T04:01:06;97775.28;;;15.16;82.50
40155;BME280;25875;48.202;16.334;2023-08-06T04:03:32;97774.44;;;15.16;82.59
40155;BME280;25875;48.202;16.334;2023-08-06T04:05:59;97768.81;;;15.19;82.76
40155;BME280;25875;48.202;16.334;2023-08-06T04:08:26;97757.13;;;15.20;82.13
40155;BME280;25875;48.202;16.334;2023-08-06T04:10:54;97770.78;;;15.17;82.80
40155;BME280;25875;48.202;16.334;2023-08-06T04:13:21;97770.25;;;15.13;82.88
40155;BME280;25875;48.202;16.334;2023-08-06T04:15:47;97783.44;;;15.15;83.33
40155;BME280;25875;48.202;16.334;2023-08-06T04:18:14;97773.75;;;15.14;83.86
40155;BME280;25875;48.202;16.334;2023-08-06T04:20:44;97759.28;;;15.16;82.71
40155;BME280;25875;48.202;16.334;2023-08-06T04:23:11;97766.75;;;15.13;83.42
40155;BME280;25875;48.202;16.334;2023-08-06T04:25:38;97765.97;;;15.20;82.68
40155;BME280;25875;48.202;16.334;2023-08-06T04:28:06;97760.66;;;15.20;82.58
40155;BME280;25875;48.202;16.334;2023-08-06T04:30:33;97766.53;;;15.24;82.09
40155;BME280;25875;48.202;16.334;2023-08-06T04:33:00;97750.50;;;15.24;81.94
40155;BME280;25875;48.202;16.334;2023-08-06T04:35:27;97758.13;;;15.19;82.84
40155;BME280;25875;48.202;16.334;2023-08-06T04:37:53;97760.13;;;15.17;82.36
40155;BME280;25875;48.202;16.334;2023-08-06T04:40:20;97764.47;;;15.18;82.40
40155;BME280;25875;48.202;16.334;2023-08-06T04:42:47;97756.84;;;15.23;81.84
40155;BME280;25875;48.202;16.334;2023-08-06T04:45:15;97701.69;;;14.78;81.80
40155;BME280;25875;48.202;16.334;2023-08-06T04:47:42;97759.13;;;15.18;81.54
40155;BME280;25875;48.202;16.334;2023-08-06T04:50:09;97754.78;;;15.17;81.47
40155;BME280;25875;48.202;16.334;2023-08-06T04:52:36;97760.25;;;15.15;81.69
40155;BME280;25875;48.202;16.334;2023-08-06T04:55:04;97752.66;;;15.20;81.56
40155;BME280;25875;48.202;16.334;2023-08-06T04:57:31;97749.44;;;15.17;81.09
40155;BME280;25875;48.202;16.334;2023-08-06T04:59:58;97745.63;;;15.19;81.06
40155;BME280;25875;48.202;16.334;2023-08-06T05:02:26;97712.91;;;14.99;80.61
40155;BME280;25875;48.202;16.334;2023-08-06T05:04:53;97742.13;;;15.19;81.05
40155;BME280;25875;48.202;16.334;2023-08-06T05:07:19;97746.47;;;15.20;80.92
40155;BME280;25875;48.202;16.334;2023-08-06T05:09:46;97753.47;;;15.21;80.94
40155;BME280;25875;48.202;16.334;2023-08-06T05:12:13;97723.97;;;15.04;80.68
40155;BME280;25875;48.202;16.334;2023-08-06T05:14:40;97716.66;;;15.06;80.87
40155;BME280;25875;48.202;16.334;2023-08-06T05:17:06;97740.97;;;15.21;80.66
40155;BME280;25875;48.202;16.334;2023-08-06T05:19:34;97745.31;;;15.22;80.54
40155;BME280;25875;48.202;16.334;2023-08-06T05:22:01;97745.63;;;15.19;80.63
40155;BME280;25875;48.202;16.334;2023-08-06T05:24:28;97749.13;;;15.20;80.69
40155;BME280;25875;48.202;16.334;2023-08-06T05:26:54;97753.31;;;15.22;80.22
40155;BME280;25875;48.202;16.334;2023-08-06T05:29:21;97749.81;;;15.22;80.25
40155;BME280;25875;48.202;16.334;2023-08-06T05:31:48;97753.63;;;15.19;80.53
40155;BME280;25875;48.202;16.334;2023-08-06T05:34:15;97758.97;;;15.19;80.32
40155;BME280;25875;48.202;16.334;2023-08-06T05:36:43;97765.69;;;15.23;80.64
40155;BME280;25875;48.202;16.334;2023-08-06T05:39:09;97734.78;;;15.03;80.47
40155;BME280;25875;48.202;16.334;2023-08-06T05:41:36;97768.50;;;15.22;80.07
40155;BME280;25875;48.202;16.334;2023-08-06T05:44:03;97757.13;;;15.20;80.47
40155;BME280;25875;48.202;16.334;2023-08-06T05:46:30;97757.97;;;15.20;80.76
40155;BME280;25875;48.202;16.334;2023-08-06T05:48:59;97750.66;;;15.22;80.65
40155;BME280;25875;48.202;16.334;2023-08-06T05:51:26;97747.00;;;15.23;80.43
40155;BME280;25875;48.202;16.334;2023-08-06T05:53:54;97734.19;;;15.09;80.09
40155;BME280;25875;48.202;16.334;2023-08-06T05:56:21;97754.16;;;15.23;80.35
40155;BME280;25875;48.202;16.334;2023-08-06T05:58:48;97753.03;;;15.25;80.05
40155;BME280;25875;48.202;16.334;2023-08-06T06:01:18;97753.19;;;15.24;80.21
40155;BME280;25875;48.202;16.334;2023-08-06T06:03:45;97751.34;;;15.24;79.86
40155;BME280;25875;48.202;16.334;2023-08-06T06:06:11;97764.91;;;15.31;79.56
40155;BME280;25875;48.202;16.334;2023-08-06T06:08:38;97739.59;;;15.17;79.53
40155;BME280;25875;48.202;16.334;2023-08-06T06:11:06;97773.91;;;15.30;79.56
40155;BME280;25875;48.202;16.334;2023-08-06T06:13:33;97749.75;;;15.14;79.16
40155;BME280;25875;48.202;16.334;2023-08-06T06:15:59;97777.28;;;15.32;79.23
40155;BME280;25875;48.202;16.334;2023-08-06T06:18:26;97780.78;;;15.32;79.68
40155;BME280;25875;48.202;16.334;2023-08-06T06:20:53;97795.81;;;15.33;79.27
40155;BME280;25875;48.202;16.334;2023-08-06T06:23:19;97758.44;;;15.16;79.44
40155;BME280;25875;48.202;16.334;2023-08-06T06:25:48;97797.47;;;15.34;79.36
40155;BME280;25875;48.202;16.334;2023-08-06T06:28:18;97796.34;;;15.37;78.92
40155;BME280;25875;48.202;16.334;2023-08-06T06:30:45;97795.34;;;15.38;79.03
40155;BME280;25875;48.202;16.334;2023-08-06T06:33:11;97789.84;;;15.39;78.63
40155;BME280;25875;48.202;16.334;2023-08-06T06:35:38;97769.50;;;15.21;78.94
40155;BME280;25875;48.202;16.334;2023-08-06T06:38:05;97797.72;;;15.41;78.87
40155;BME280;25875;48.202;16.334;2023-08-06T06:40:32;97795.56;;;15.45;78.97
40155;BME280;25875;48.202;16.334;2023-08-06T06:42:59;97808.94;;;15.45;79.21
40155;BME280;25875;48.202;16.334;2023-08-06T06:45:27;97808.47;;;15.49;79.28
40155;BME280;25875;48.202;16.334;2023-08-06T06:47:54;97801.16;;;15.51;79.87
40155;BME280;25875;48.202;16.334;2023-08-06T06:50:20;97800.59;;;15.48;79.42
40155;BME280;25875;48.202;16.334;2023-08-06T06:52:47;97795.50;;;15.54;79.74
40155;BME280;25875;48.202;16.334;2023-08-06T06:55:14;97794.03;;;15.60;79.18
40155;BME280;25875;48.202;16.334;2023-08-06T06:57:40;97787.88;;;15.59;79.18
40155;BME280;25875;48.202;16.334;2023-08-06T07:00:08;97788.84;;;15.58;79.72
40155;BME280;25875;48.202;16.334;2023-08-06T07:02:36;97784.88;;;15.62;79.41
40155;BME280;25875;48.202;16.334;2023-08-06T07:05:03;97795.28;;;15.65;79.54
40155;BME280;25875;48.202;16.334;2023-08-06T07:07:30;97792.31;;;15.68;79.62
40155;BME280;25875;48.202;16.334;2023-08-06T07:09:56;97791.63;;;15.66;79.26
40155;BME280;25875;48.202;16.334;2023-08-06T07:12:23;97804.00;;;15.67;79.88
40155;BME280;25875;48.202;16.334;2023-08-06T07:14:50;97796.66;;;15.69;79.67
40155;BME280;25875;48.202;16.334;2023-08-06T07:17:17;97795.28;;;15.65;79.59
40155;BME280;25875;48.202;16.334;2023-08-06T07:19:45;97794.56;;;15.63;79.45
40155;BME280;25875;48.202;16.334;2023-08-06T07:22:11;97758.56;;;15.50;79.87
40155;BME280;25875;48.202;16.334;2023-08-06T07:24:38;97755.81;;;15.59;79.71
40155;BME280;25875;48.202;16.334;2023-08-06T07:27:06;97742.25;;;15.53;79.58
40155;BME280;25875;48.202;16.334;2023-08-06T07:29:32;97781.00;;;15.75;79.50
40155;BME280;25875;48.202;16.334;2023-08-06T07:31:59;97647.69;;;14.94;79.10
40155;BME280;25875;48.202;16.334;2023-08-06T07:34:26;97771.69;;;15.61;79.37
40155;BME280;25875;48.202;16.334;2023-08-06T07:36:54;97788.50;;;15.71;79.17
40155;BME280;25875;48.202;16.334;2023-08-06T07:39:21;97784.53;;;15.75;78.91
40155;BME280;25875;48.202;16.334;2023-08-06T07:41:48;97795.03;;;15.77;79.01
40155;BME280;25875;48.202;16.334;2023-08-06T07:44:14;97789.72;;;15.77;78.66
40155;BME280;25875;48.202;16.334;2023-08-06T07:46:41;97772.84;;;15.76;78.69
40155;BME280;25875;48.202;16.334;2023-08-06T07:49:09;97756.50;;;15.61;78.69
40155;BME280;25875;48.202;16.334;2023-08-06T07:51:37;97773.69;;;15.77;78.51
40155;BME280;25875;48.202;16.334;2023-08-06T07:54:05;97761.84;;;15.79;78.54
40155;BME280;25875;48.202;16.334;2023-08-06T07:56:32;97765.50;;;15.78;77.87
40155;BME280;25875;48.202;16.334;2023-08-06T07:58:59;97616.13;;;14.89;78.08
40155;BME280;25875;48.202;16.334;2023-08-06T08:01:27;97767.19;;;15.79;77.90
40155;BME280;25875;48.202;16.334;2023-08-06T08:03:54;97770.00;;;15.78;77.44
40155;BME280;25875;48.202;16.334;2023-08-06T08:06:20;97781.84;;;15.75;77.56
40155;BME280;25875;48.202;16.334;2023-08-06T08:08:48;97770.16;;;15.76;76.92
40155;BME280;25875;48.202;16.334;2023-08-06T08:11:16;97761.00;;;15.79;77.14
40155;BME280;25875;48.202;16.334;2023-08-06T08:13:43;97761.53;;;15.82;76.80
40155;BME280;25875;48.202;16.334;2023-08-06T08:16:10;97747.44;;;15.72;77.57
40155;BME280;25875;48.202;16.334;2023-08-06T08:18:37;97778.94;;;15.86;76.82
40155;BME280;25875;48.202;16.334;2023-08-06T08:21:04;97759.03;;;15.81;76.41
40155;BME280;25875;48.202;16.334;2023-08-06T08:23:30;97747.50;;;15.80;76.24
40155;BME280;25875;48.202;16.334;2023-08-06T08:25:58;97743.31;;;15.78;76.25
40155;BME280;25875;48.202;16.334;2023-08-06T08:28:26;97755.13;;;15.75;76.61
40155;BME280;25875;48.202;16.334;2023-08-06T08:30:52;97759.63;;;15.75;76.13
40155;BME280;25875;48.202;16.334;2023-08-06T08:33:21;97750.31;;;15.79;76.43
40155;BME280;25875;48.202;16.334;2023-08-06T08:35:48;97743.31;;;15.78;76.15
40155;BME280;25875;48.202;16.334;2023-08-06T08:38:14;97752.00;;;15.80;76.00
40155;BME280;25875;48.202;16.334;2023-08-06T08:40:45;97752.63;;;15.74;76.25
40155;BME280;25875;48.202;16.334;2023-08-06T08:43:12;97723.47;;;15.62;75.98
40155;BME280;25875;48.202;16.334;2023-08-06T08:45:42;97756.34;;;15.81;75.90
40155;BME280;25875;48.202;16.334;2023-08-06T08:48:12;97765.88;;;15.83;76.07
40155;BME280;25875;48.202;16.334;2023-08-06T08:50:40;97777.63;;;15.90;75.94
40155;BME280;25875;48.202;16.334;2023-08-06T08:53:08;97780.81;;;15.94;76.22
40155;BME280;25875;48.202;16.334;2023-08-06T08:55:38;97767.47;;;15.94;75.73
40155;BME280;25875;48.202;16.334;2023-08-06T08:58:04;97773.16;;;15.99;75.77
40155;BME280;25875;48.202;16.334;2023-08-06T09:00:31;97761.66;;;15.98;76.05
40155;BME280;25875;48.202;16.334;2023-08-06T09:03:00;97772.50;;;15.97;75.86
40155;BME280;25875;48.202;16.334;2023-08-06T09:05:29;97773.66;;;15.94;76.72
40155;BME280;25875;48.202;16.334;2023-08-06T09:08:02;97771.97;;;15.93;77.46
40155;BME280;25875;48.202;16.334;2023-08-06T09:10:30;97774.78;;;15.92;77.32
40155;BME280;25875;48.202;16.334;2023-08-06T09:12:57;97783.50;;;15.94;77.58
40155;BME280;25875;48.202;16.334;2023-08-06T09:15:26;97784.34;;;15.94;77.19
40155;BME280;25875;48.202;16.334;2023-08-06T09:17:54;97780.75;;;15.86;77.00
40155;BME280;25875;48.202;16.334;2023-08-06T09:20:22;97801.59;;;15.82;77.09
40155;BME280;25875;48.202;16.334;2023-08-06T09:22:52;97791.91;;;15.81;77.39
40155;BME280;25875;48.202;16.334;2023-08-06T09:25:21;97804.59;;;15.79;77.62
40155;BME280;25875;48.202;16.334;2023-08-06T09:27:50;97801.75;;;15.81;77.93
40155;BME280;25875;48.202;16.334;2023-08-06T09:30:29;97792.06;;;15.80;77.85
40155;BME280;25875;48.202;16.334;2023-08-06T09:32:56;97795.88;;;15.77;77.47
40155;BME280;25875;48.202;16.334;2023-08-06T09:35:24;97810.91;;;15.78;77.52
40155;BME280;25875;48.202;16.334;2023-08-06T09:37:51;97784.38;;;15.77;77.07
40155;BME280;25875;48.202;16.334;2023-08-06T09:40:25;97801.75;;;15.81;77.35
40155;BME280;25875;48.202;16.334;2023-08-06T09:42:53;97782.63;;;15.67;77.17
40155;BME280;25875;48.202;16.334;2023-08-06T09:45:20;97789.94;;;15.83;77.24
40155;BME280;25875;48.202;16.334;2023-08-06T09:47:47;97777.28;;;15.67;77.18
40155;BME280;25875;48.202;16.334;2023-08-06T09:50:17;97801.44;;;15.84;77.15
40155;BME280;25875;48.202;16.334;2023-08-06T09:52:46;97797.78;;;15.85;77.51
40155;BME280;25875;48.202;16.334;2023-08-06T09:55:14;97792.81;;;15.90;77.35
40155;BME280;25875;48.202;16.334;2023-08-06T09:57:42;97786.47;;;15.91;76.63
40155;BME280;25875;48.202;16.334;2023-08-06T10:00:10;97790.66;;;15.93;76.41
40155;BME280;25875;48.202;16.334;2023-08-06T10:02:38;97793.50;;;15.92;75.20
40155;BME280;25875;48.202;16.334;2023-08-06T10:05:06;97720.59;;;15.38;74.50
40155;BME280;25875;48.202;16.334;2023-08-06T10:07:33;97746.66;;;15.62;74.56
40155;BME280;25875;48.202;16.334;2023-08-06T10:10:02;97802.41;;;16.00;75.46
40155;BME280;25875;48.202;16.334;2023-08-06T10:12:32;97803.09;;;16.02;75.38
40155;BME280;25875;48.202;16.334;2023-08-06T10:15:03;97809.97;;;16.05;76.05
40155;BME280;25875;48.202;16.334;2023-08-06T10:17:31;97820.34;;;16.08;76.12
40155;BME280;25875;48.202;16.334;2023-08-06T10:19:59;97782.00;;;15.74;76.38
40155;BME280;25875;48.202;16.334;2023-08-06T10:22:26;97820.34;;;16.08;76.47
40155;BME280;25875;48.202;16.334;2023-08-06T10:24:54;97810.69;;;16.15;77.01
40155;BME280;25875;48.202;16.334;2023-08-06T10:27:28;97822.91;;;16.18;76.52
40155;BME280;25875;48.202;16.334;2023-08-06T10:29:56;97826.41;;;16.18;76.65
40155;BME280;25875;48.202;16.334;2023-08-06T10:32:46;97803.16;;;16.11;76.36
40155;BME280;25875;48.202;16.334;2023-08-06T10:35:31;97826.31;;;16.28;76.27
40155;BME280;25875;48.202;16.334;2023-08-06T10:37:59;97828.63;;;16.23;75.72
40155;BME280;25875;48.202;16.334;2023-08-06T10:40:26;97821.44;;;16.23;76.39
40155;BME280;25875;48.202;16.334;2023-08-06T10:42:58;97826.31;;;16.28;76.72
40155;BME280;25875;48.202;16.334;2023-08-06T10:45:25;97840.34;;;16.30;76.82
40155;BME280;25875;48.202;16.334;2023-08-06T10:47:54;97836.06;;;16.37;76.58
40155;BME280;25875;48.202;16.334;2023-08-06T10:50:21;97809.06;;;16.22;77.04
40155;BME280;25875;48.202;16.334;2023-08-06T10:52:48;97810.53;;;16.17;77.31
40155;BME280;25875;48.202;16.334;2023-08-06T10:55:22;97817.50;;;16.10;77.55
40155;BME280;25875;48.202;16.334;2023-08-06T10:57:49;97834.50;;;16.26;77.36
40155;BME280;25875;48.202;16.334;2023-08-06T11:00:17;97837.69;;;16.30;77.60
40155;BME280;25875;48.202;16.334;2023-08-06T11:02:47;97846.19;;;16.25;77.47
40155;BME280;25875;48.202;16.334;2023-08-06T11:05:13;97835.47;;;16.25;77.22
40155;BME280;25875;48.202;16.334;2023-08-06T11:07:40;97646.97;;;15.10;77.18
40155;BME280;25875;48.202;16.334;2023-08-06T11:10:09;97838.78;;;16.19;76.32
40155;BME280;25875;48.202;16.334;2023-08-06T11:12:36;97837.25;;;16.17;76.24
40155;BME280;25875;48.202;16.334;2023-08-06T11:15:04;97846.28;;;16.16;76.08
40155;BME280;25875;48.202;16.334;2023-08-06T11:17:33;97849.25;;;16.13;76.10
40155;BME280;25875;48.202;16.334;2023-08-06T11:20:01;97857.44;;;16.11;76.36
40155;BME280;25875;48.202;16.334;2023-08-06T11:22:28;97764.22;;;15.47;75.80
40155;BME280;25875;48.202;16.334;2023-08-06T11:24:55;97868.75;;;16.05;76.01
40155;BME280;25875;48.202;16.334;2023-08-06T11:27:22;97851.34;;;16.01;76.29
40155;BME280;25875;48.202;16.334;2023-08-06T11:29:48;97808.34;;;15.68;76.56
40155;BME280;25875;48.202;16.334;2023-08-06T11:32:15;97867.53;;;15.99;76.02
40155;BME280;25875;48.202;16.334;2023-08-06T11:34:43;97864.78;;;15.91;76.14
40155;BME280;25875;48.202;16.334;2023-08-06T11:37:10;97865.00;;;15.98;76.49
40155;BME280;25875;48.202;16.334;2023-08-06T11:39:38;97868.38;;;16.00;76.91
40155;BME280;25875;48.202;16.334;2023-08-06T11:42:05;97876.38;;;16.00;76.47
40155;BME280;25875;48.202;16.334;2023-08-06T11:44:35;97880.34;;;15.96;76.53
40155;BME280;25875;48.202;16.334;2023-08-06T11:47:03;97882.03;;;15.97;76.59
40155;BME280;25875;48.202;16.334;2023-08-06T11:49:38;97887.69;;;15.94;76.94
40155;BME280;25875;48.202;16.334;2023-08-06T11:52:16;97886.00;;;15.93;77.36
40155;BME280;25875;48.202;16.334;2023-08-06T11:54:45;97884.41;;;16.00;77.25
40155;BME280;25875;48.202;16.334;2023-08-06T11:57:12;97840.91;;;15.72;77.66
40155;BME280;25875;48.202;16.334;2023-08-06T11:59:39;97881.41;;;16.03;77.75
40155;BME280;25875;48.202;16.334;2023-08-06T12:02:08;97900.13;;;16.03;77.95
40155;BME280;25875;48.202;16.334;2023-08-06T12:04:57;97880.72;;;16.01;77.81
40155;BME280;25875;48.202;16.334;2023-08-06T12:07:30;97881.34;;;15.95;77.24
40155;BME280;25875;48.202;16.334;2023-08-06T12:09:57;97889.06;;;15.98;77.42
40155;BME280;25875;48.202;16.334;2023-08-06T12:12:25;97875.63;;;15.90;77.33
40155;BME280;25875;48.202;16.334;2023-08-06T12:14:51;97859.22;;;15.85;77.57
40155;BME280;25875;48.202;16.334;2023-08-06T12:17:18;97887.75;;;16.02;76.89
40155;BME280;25875;48.202;16.334;2023-08-06T12:19:45;97884.25;;;16.01;77.62
40155;BME280;25875;48.202;16.334;2023-08-06T12:22:13;97890.13;;;16.05;76.91
40155;BME280;25875;48.202;16.334;2023-08-06T12:24:43;97884.16;;;16.11;76.64
40155;BME280;25875;48.202;16.334;2023-08-06T12:27:10;97857.16;;;15.96;77.02
40155;BME280;25875;48.202;16.334;2023-08-06T12:29:37;97889.03;;;16.16;76.81
40155;BME280;25875;48.202;16.334;2023-08-06T12:32:04;97880.34;;;16.14;77.44
40155;BME280;25875;48.202;16.334;2023-08-06T12:34:31;97882.84;;;16.15;77.86
40155;BME280;25875;48.202;16.334;2023-08-06T12:36:58;97896.22;;;16.15;78.19
40155;BME280;25875;48.202;16.334;2023-08-06T12:39:25;97889.50;;;16.11;77.51
40155;BME280;25875;48.202;16.334;2023-08-06T12:41:55;97860.66;;;15.97;77.24
40155;BME280;25875;48.202;16.334;2023-08-06T12:44:23;97891.19;;;16.12;77.51
40155;BME280;25875;48.202;16.334;2023-08-06T12:46:49;97871.19;;;15.98;77.84
40155;BME280;25875;48.202;16.334;2023-08-06T12:49:16;97891.72;;;16.16;77.06
40155;BME280;25875;48.202;16.334;2023-08-06T12:51:43;97782.38;;;15.43;77.22
40155;BME280;25875;48.202;16.334;2023-08-06T12:54:10;97889.72;;;16.18;76.92